createdAt,value
2022-10-17T00:00:40.625Z,14.50
2022-10-17T00:03:08.613Z,14.50
2022-10-17T00:05:41.055Z,14.50
2022-10-17T00:08:09.268Z,14.40
2022-10-17T00:10:37.562Z,14.40
2022-10-17T00:13:06.306Z,14.40
2022-10-17T00:15:36.034Z,14.40
2022-10-17T00:18:04.968Z,14.40
2022-10-17T00:20:35.595Z,14.40
2022-10-17T00:23:03.834Z,14.40
2022-10-17T00:25:31.840Z,14.40
2022-10-17T00:27:59.810Z,14.40
2022-10-17T00:30:27.850Z,14.40
2022-10-17T00:32:57.172Z,14.40
2022-10-17T00:35:25.212Z,14.40
2022-10-17T00:37:53.190Z,14.40
2022-10-17T00:40:21.227Z,14.40
2022-10-17T00:42:51.284Z,14.40
2022-10-17T00:45:23.660Z,14.30
2022-10-17T00:47:56.980Z,14.30
2022-10-17T00:50:25.915Z,14.30
2022-10-17T00:52:54.787Z,14.30
2022-10-17T00:55:25.413Z,14.20
2022-10-17T00:57:53.929Z,14.20
2022-10-17T01:00:22.356Z,14.20
2022-10-17T01:02:50.461Z,14.10
2022-10-17T01:05:20.768Z,14.10
2022-10-17T01:07:51.821Z,14.10
2022-10-17T01:10:20.005Z,14.00
2022-10-17T01:13:01.104Z,14.00
2022-10-17T01:15:39.966Z,14.00
2022-10-17T01:18:20.105Z,14.00
2022-10-17T01:21:32.875Z,14.00
2022-10-17T01:24:31.334Z,14.00
2022-10-17T01:27:19.509Z,14.00
2022-10-17T01:30:01.428Z,14.00
2022-10-17T01:32:36.771Z,14.00
2022-10-17T01:35:11.382Z,13.90
2022-10-17T01:37:45.309Z,13.90
2022-10-17T01:40:19.219Z,13.90
2022-10-17T01:42:58.089Z,13.90
2022-10-17T01:45:33.530Z,13.90
2022-10-17T01:48:08.356Z,13.80
2022-10-17T01:50:41.356Z,13.80
2022-10-17T01:53:14.365Z,13.80
2022-10-17T01:55:45.224Z,13.80
2022-10-17T01:58:19.004Z,13.70
2022-10-17T02:00:49.432Z,13.70
2022-10-17T02:03:21.154Z,13.70
2022-10-17T02:05:49.408Z,13.70
2022-10-17T02:08:27.558Z,13.70
2022-10-17T02:11:02.725Z,13.60
2022-10-17T02:13:45.197Z,13.60
2022-10-17T02:16:26.797Z,13.60
2022-10-17T02:19:09.172Z,13.60
2022-10-17T02:21:43.012Z,13.60
2022-10-17T02:24:20.743Z,13.50
2022-10-17T02:26:54.839Z,13.50
2022-10-17T02:29:28.945Z,13.50
2022-10-17T02:32:00.965Z,13.50
2022-10-17T02:34:34.698Z,13.50
2022-10-17T02:37:06.573Z,13.50
2022-10-17T02:39:37.250Z,13.50
2022-10-17T02:42:09.990Z,13.40
2022-10-17T02:44:41.221Z,13.40
2022-10-17T02:47:13.956Z,13.40
2022-10-17T02:49:47.886Z,13.40
2022-10-17T02:52:19.057Z,13.40
2022-10-17T02:54:53.119Z,13.40
2022-10-17T02:57:26.875Z,13.40
2022-10-17T02:59:56.327Z,13.40
2022-10-17T03:02:24.391Z,13.40
2022-10-17T03:04:53.977Z,13.40
2022-10-17T03:07:21.935Z,13.40
2022-10-17T03:09:49.891Z,13.40
2022-10-17T03:12:17.877Z,13.40
2022-10-17T03:14:45.923Z,13.40
2022-10-17T03:17:13.862Z,13.40
2022-10-17T03:19:41.860Z,13.40
2022-10-17T03:22:11.163Z,13.40
2022-10-17T03:24:39.125Z,13.40
2022-10-17T03:27:07.100Z,13.40
2022-10-17T03:29:35.033Z,13.40
2022-10-17T03:32:03.119Z,13.30
2022-10-17T03:34:31.059Z,13.30
2022-10-17T03:36:59.056Z,13.30
2022-10-17T03:39:28.422Z,13.30
2022-10-17T03:41:56.398Z,13.30
2022-10-17T03:44:24.367Z,13.30
2022-10-17T03:46:52.408Z,13.30
2022-10-17T03:49:20.358Z,13.20
2022-10-17T03:51:48.301Z,13.20
2022-10-17T03:54:16.319Z,13.20
2022-10-17T03:56:45.730Z,13.10
2022-10-17T03:59:15.143Z,13.10
2022-10-17T04:01:43.869Z,13.10
2022-10-17T04:04:12.179Z,13.10
2022-10-17T04:06:40.213Z,13.10
2022-10-17T04:09:09.051Z,13.10
2022-10-17T04:11:36.990Z,13.10
2022-10-17T04:14:06.562Z,13.10
2022-10-17T04:16:34.561Z,13.10
2022-10-17T04:19:03.154Z,13.10
2022-10-17T04:21:31.174Z,13.00
2022-10-17T04:24:01.337Z,13.10
2022-10-17T04:26:29.465Z,13.00
2022-10-17T04:28:57.478Z,13.00
2022-10-17T04:31:26.828Z,13.00
2022-10-17T04:33:54.794Z,13.00
2022-10-17T04:36:23.371Z,13.00
2022-10-17T04:38:51.518Z,12.90
2022-10-17T04:41:20.256Z,12.90
2022-10-17T04:43:51.026Z,12.90
2022-10-17T04:46:19.712Z,12.90
2022-10-17T04:48:49.052Z,12.90
2022-10-17T04:51:20.781Z,12.90
2022-10-17T04:53:51.376Z,12.90
2022-10-17T04:56:21.891Z,12.90
2022-10-17T04:58:51.572Z,12.90
2022-10-17T05:01:21.285Z,12.90
2022-10-17T05:03:50.781Z,12.90
2022-10-17T05:06:20.463Z,12.90
2022-10-17T05:08:49.226Z,12.90
2022-10-17T05:11:22.136Z,12.90
2022-10-17T05:13:54.991Z,12.90
2022-10-17T05:16:23.957Z,12.80
2022-10-17T05:18:55.357Z,12.90
2022-10-17T05:21:25.227Z,12.90
2022-10-17T05:23:54.070Z,12.80
2022-10-17T05:26:22.123Z,12.90
2022-10-17T05:28:52.373Z,12.90
2022-10-17T05:31:20.570Z,12.90
2022-10-17T05:33:48.567Z,12.90
2022-10-17T05:36:17.903Z,12.90
2022-10-17T05:38:49.628Z,12.80
2022-10-17T05:41:17.695Z,12.80
2022-10-17T05:43:45.709Z,12.80
2022-10-17T05:46:13.668Z,12.80
2022-10-17T05:48:41.574Z,12.70
2022-10-17T05:51:11.180Z,12.70
2022-10-17T05:53:42.226Z,12.70
2022-10-17T05:56:12.343Z,12.70
2022-10-17T05:58:51.560Z,12.70
2022-10-17T06:01:21.272Z,12.70
2022-10-17T06:03:49.309Z,12.70
2022-10-17T06:06:17.821Z,12.70
2022-10-17T06:08:47.487Z,12.80
2022-10-17T06:11:15.490Z,12.80
2022-10-17T06:13:43.514Z,12.80
2022-10-17T06:16:11.564Z,12.90
2022-10-17T06:18:39.601Z,13.00
2022-10-17T06:21:10.247Z,13.00
2022-10-17T06:23:38.615Z,13.10
2022-10-17T06:26:08.502Z,13.10
2022-10-17T06:28:37.282Z,13.20
2022-10-17T06:31:07.143Z,13.20
2022-10-17T06:33:35.166Z,13.30
2022-10-17T06:36:03.522Z,13.30
2022-10-17T06:38:32.095Z,13.30
2022-10-17T06:41:08.230Z,13.40
2022-10-17T06:43:38.197Z,13.40
2022-10-17T06:46:06.707Z,13.50
2022-10-17T06:48:34.678Z,13.50
2022-10-17T06:51:04.513Z,13.60
2022-10-17T06:53:34.422Z,13.60
2022-10-17T06:56:04.296Z,13.70
2022-10-17T06:58:33.434Z,13.70
2022-10-17T07:01:03.471Z,13.80
2022-10-17T07:03:32.035Z,13.80
2022-10-17T07:06:00.186Z,13.90
2022-10-17T07:08:28.654Z,14.00
2022-10-17T07:10:57.246Z,14.00
2022-10-17T07:13:25.742Z,14.10
2022-10-17T07:18:27.628Z,14.20
2022-10-17T07:20:56.297Z,14.30
2022-10-17T07:23:24.988Z,14.40
2022-10-17T07:25:52.961Z,14.50
2022-10-17T07:28:21.059Z,14.50
2022-10-17T07:30:52.011Z,14.60
2022-10-17T07:33:22.693Z,14.70
2022-10-17T07:35:53.267Z,14.70
2022-10-17T07:38:21.257Z,14.80
2022-10-17T07:40:55.661Z,14.90
2022-10-17T07:43:24.185Z,15.10
2022-10-17T07:45:52.566Z,15.20
2022-10-17T07:48:21.459Z,15.30
2022-10-17T07:50:51.395Z,15.40
2022-10-17T07:53:19.988Z,15.50
2022-10-17T07:55:49.559Z,15.70
2022-10-17T07:58:17.827Z,15.80
2022-10-17T08:00:48.267Z,15.90
2022-10-17T08:03:16.527Z,16.00
2022-10-17T08:05:44.477Z,16.10
2022-10-17T08:08:13.954Z,16.30
2022-10-17T08:10:41.898Z,16.40
2022-10-17T08:13:09.901Z,16.50
2022-10-17T08:15:39.525Z,16.60
2022-10-17T08:18:07.703Z,16.60
2022-10-17T08:20:35.646Z,16.70
2022-10-17T08:23:03.656Z,16.70
2022-10-17T08:25:33.406Z,16.70
2022-10-17T08:28:01.453Z,16.70
2022-10-17T08:30:30.667Z,16.80
2022-10-17T08:32:58.734Z,16.90
2022-10-17T08:35:26.766Z,17.00
2022-10-17T08:37:54.721Z,17.10
2022-10-17T08:40:26.309Z,17.20
2022-10-17T08:43:07.868Z,17.40
2022-10-17T08:45:40.657Z,17.50
2022-10-17T08:48:13.733Z,17.60
2022-10-17T08:50:46.283Z,17.70
2022-10-17T08:53:21.083Z,17.70
2022-10-17T08:55:50.913Z,17.80
2022-10-17T08:58:23.658Z,17.90
2022-10-17T09:01:01.236Z,18.00
2022-10-17T09:03:45.066Z,18.10
2022-10-17T09:06:20.679Z,18.20
2022-10-17T09:09:00.032Z,18.30
2022-10-17T09:11:52.586Z,18.40
2022-10-17T09:14:35.470Z,18.50
2022-10-17T09:17:20.705Z,18.60
2022-10-17T09:20:04.382Z,18.70
2022-10-17T09:22:38.884Z,18.90
2022-10-17T09:25:12.496Z,19.00
2022-10-17T09:27:44.288Z,19.10
2022-10-17T09:30:44.844Z,19.30
2022-10-17T09:33:28.190Z,19.30
2022-10-17T09:36:05.867Z,19.40
2022-10-17T09:38:40.526Z,19.60
2022-10-17T09:41:43.536Z,19.70
2022-10-17T09:44:17.943Z,19.80
2022-10-17T09:47:06.546Z,19.90
2022-10-17T09:49:36.214Z,20.10
2022-10-17T09:52:07.614Z,20.20
2022-10-17T09:54:45.347Z,20.40
2022-10-17T09:57:15.020Z,20.50
2022-10-17T09:59:45.247Z,20.70
2022-10-17T10:02:21.367Z,20.90
2022-10-17T10:05:06.075Z,21.10
2022-10-17T10:07:38.299Z,21.20
2022-10-17T10:10:08.856Z,21.30
2022-10-17T10:12:39.775Z,21.40
2022-10-17T10:15:34.418Z,21.50
2022-10-17T10:18:03.844Z,21.60
2022-10-17T10:20:35.380Z,21.70
2022-10-17T10:23:14.606Z,21.80
2022-10-17T10:25:55.380Z,21.80
2022-10-17T10:28:27.927Z,21.70
2022-10-17T10:30:57.565Z,21.70
2022-10-17T10:33:29.542Z,21.60
2022-10-17T10:36:01.347Z,21.70
2022-10-17T10:38:30.437Z,21.70
2022-10-17T10:41:05.213Z,21.80
2022-10-17T10:43:37.871Z,21.90
2022-10-17T10:46:17.483Z,21.90
2022-10-17T10:48:54.790Z,21.90
2022-10-17T10:51:28.195Z,22.00
2022-10-17T10:54:01.362Z,22.00
2022-10-17T10:56:32.872Z,22.00
2022-10-17T10:59:05.329Z,22.00
2022-10-17T11:01:48.072Z,22.00
2022-10-17T11:04:29.765Z,22.10
2022-10-17T11:07:04.677Z,22.10
2022-10-17T11:09:41.932Z,22.20
2022-10-17T11:12:15.949Z,22.20
2022-10-17T11:14:49.574Z,22.30
2022-10-17T11:17:28.659Z,22.40
2022-10-17T11:20:07.501Z,22.40
2022-10-17T11:22:42.336Z,22.30
2022-10-17T11:25:23.442Z,22.30
2022-10-17T11:27:51.428Z,22.20
2022-10-17T11:30:19.503Z,22.30
2022-10-17T11:32:52.237Z,22.30
2022-10-17T11:35:25.843Z,22.30
2022-10-17T11:38:07.180Z,22.40
2022-10-17T11:40:37.807Z,22.40
2022-10-17T11:43:12.557Z,22.50
2022-10-17T11:45:43.845Z,22.60
2022-10-17T11:48:18.164Z,22.70
2022-10-17T11:53:48.751Z,22.80
2022-10-17T11:56:20.248Z,22.90
2022-10-17T11:58:55.315Z,23.00
2022-10-17T12:01:33.788Z,23.00
2022-10-17T12:04:28.208Z,23.10
2022-10-17T12:07:11.086Z,23.10
2022-10-17T12:09:46.005Z,23.20
2022-10-17T12:12:26.888Z,23.20
2022-10-17T12:14:55.406Z,23.20
2022-10-17T12:17:32.959Z,23.20
2022-10-17T12:20:30.544Z,23.20
2022-10-17T12:23:36.465Z,23.20
2022-10-17T12:26:07.411Z,23.20
2022-10-17T12:28:43.911Z,23.30
2022-10-17T12:31:29.768Z,23.30
2022-10-17T12:34:02.858Z,23.30
2022-10-17T12:36:40.349Z,23.30
2022-10-17T12:39:51.718Z,23.30
2022-10-17T12:42:46.401Z,23.30
2022-10-17T12:45:46.122Z,23.30
2022-10-17T12:48:14.212Z,23.30
2022-10-17T12:51:34.363Z,23.30
2022-10-17T12:53:59.682Z,23.20
2022-10-17T12:56:38.369Z,23.10
2022-10-17T12:59:15.770Z,23.10
2022-10-17T13:01:48.086Z,23.00
2022-10-17T13:04:16.915Z,23.00
2022-10-17T13:06:48.138Z,22.90
2022-10-17T13:09:25.819Z,22.90
2022-10-17T13:11:55.752Z,22.80
2022-10-17T13:14:26.708Z,22.80
2022-10-17T13:16:57.495Z,22.70
2022-10-17T13:19:27.571Z,22.80
2022-10-17T13:21:59.921Z,22.80
2022-10-17T13:24:33.404Z,22.80
2022-10-17T13:27:02.490Z,22.80
2022-10-17T13:29:32.940Z,22.80
2022-10-17T13:32:03.806Z,22.80
2022-10-17T13:34:33.261Z,22.90
2022-10-17T13:37:03.266Z,22.80
2022-10-17T13:39:54.398Z,22.80
2022-10-17T13:42:25.939Z,22.80
2022-10-17T13:44:56.060Z,22.70
2022-10-17T13:47:25.563Z,22.70
2022-10-17T13:49:55.361Z,22.60
2022-10-17T13:52:28.180Z,22.60
2022-10-17T13:55:06.812Z,22.60
2022-10-17T13:57:34.961Z,22.50
2022-10-17T14:00:11.415Z,22.40
2022-10-17T14:02:41.984Z,22.40
2022-10-17T14:05:17.719Z,22.40
2022-10-17T14:08:10.800Z,22.40
2022-10-17T14:10:41.191Z,22.30
2022-10-17T14:13:19.908Z,22.30
2022-10-17T14:15:49.734Z,22.30
2022-10-17T14:18:21.749Z,22.30
2022-10-17T14:23:41.608Z,22.20
2022-10-17T14:26:13.461Z,22.20
2022-10-17T14:28:43.402Z,22.20
2022-10-17T14:31:20.771Z,22.20
2022-10-17T14:33:51.176Z,22.10
2022-10-17T14:36:20.146Z,22.10
2022-10-17T14:38:49.574Z,22.10
2022-10-17T14:41:41.781Z,22.10
2022-10-17T14:44:21.581Z,22.00
2022-10-17T14:46:54.598Z,22.00
2022-10-17T14:49:28.471Z,21.90
2022-10-17T14:52:26.761Z,21.90
2022-10-17T14:54:54.788Z,21.90
2022-10-17T14:57:27.026Z,21.90
2022-10-17T14:59:56.142Z,21.90
2022-10-17T15:02:33.464Z,21.80
2022-10-17T15:05:01.723Z,21.80
2022-10-17T15:07:29.664Z,21.70
2022-10-17T15:09:57.654Z,21.60
2022-10-17T15:12:26.886Z,21.50
2022-10-17T15:14:55.402Z,21.50
2022-10-17T15:17:25.781Z,21.40
2022-10-17T15:19:55.565Z,21.40
2022-10-17T15:22:24.115Z,21.30
2022-10-17T15:24:52.090Z,21.30
2022-10-17T15:27:22.586Z,21.20
2022-10-17T15:29:51.534Z,21.20
2022-10-17T15:32:20.225Z,21.10
2022-10-17T15:34:48.269Z,21.00
2022-10-17T15:37:21.156Z,20.90
2022-10-17T15:39:54.047Z,20.90
2022-10-17T15:42:23.216Z,20.80
2022-10-17T15:44:51.444Z,20.70
2022-10-17T15:47:25.388Z,20.70
2022-10-17T15:49:53.666Z,20.70
2022-10-17T15:52:23.546Z,20.60
2022-10-17T15:54:51.579Z,20.60
2022-10-17T15:57:22.479Z,20.50
2022-10-17T15:59:52.038Z,20.40
2022-10-17T16:02:24.102Z,20.30
2022-10-17T16:04:52.825Z,20.20
2022-10-17T16:07:22.790Z,20.10
2022-10-17T16:09:50.760Z,19.90
2022-10-17T16:12:20.433Z,19.80
2022-10-17T16:14:48.761Z,19.70
2022-10-17T16:17:17.179Z,19.60
2022-10-17T16:19:45.490Z,19.50
2022-10-17T16:22:21.060Z,19.40
2022-10-17T16:24:50.398Z,19.30
2022-10-17T16:27:18.359Z,19.20
2022-10-17T16:29:46.298Z,19.10
2022-10-17T16:32:14.249Z,19.10
2022-10-17T16:34:42.210Z,19.00
2022-10-17T16:37:10.223Z,18.90
2022-10-17T16:39:38.321Z,18.80
2022-10-17T16:42:07.719Z,18.70
2022-10-17T16:44:35.644Z,18.60
2022-10-17T16:47:03.613Z,18.50
2022-10-17T16:49:31.565Z,18.40
2022-10-17T16:51:59.576Z,18.50
2022-10-17T16:54:27.714Z,18.50
2022-10-17T16:56:57.607Z,18.50
2022-10-17T16:59:27.392Z,18.60
2022-10-17T17:01:55.782Z,18.60
2022-10-17T17:04:24.269Z,18.60
2022-10-17T17:06:52.496Z,18.60
2022-10-17T17:09:21.107Z,18.60
2022-10-17T17:14:34.897Z,18.40
2022-10-17T17:17:04.641Z,18.40
2022-10-17T17:19:33.892Z,18.30
2022-10-17T17:22:02.270Z,18.30
2022-10-17T17:24:32.051Z,18.20
2022-10-17T17:27:01.421Z,18.20
2022-10-17T17:29:29.539Z,18.10
2022-10-17T17:31:59.298Z,18.10
2022-10-17T17:34:27.776Z,18.10
2022-10-17T17:36:56.488Z,18.10
2022-10-17T17:39:25.242Z,18.10
2022-10-17T17:41:54.046Z,18.10
2022-10-17T17:44:22.763Z,18.10
2022-10-17T17:46:51.257Z,18.00
2022-10-17T17:49:21.129Z,18.00
2022-10-17T17:51:49.827Z,17.90
2022-10-17T17:54:17.806Z,18.00
2022-10-17T17:56:46.581Z,18.00
2022-10-17T17:59:15.178Z,17.90
2022-10-17T18:01:44.124Z,17.90
2022-10-17T18:04:13.240Z,17.90
2022-10-17T18:06:43.448Z,17.90
2022-10-17T18:09:11.921Z,17.80
2022-10-17T18:11:40.324Z,17.80
2022-10-17T18:14:13.846Z,17.80
2022-10-17T18:16:42.527Z,17.80
2022-10-17T18:19:13.016Z,17.80
2022-10-17T18:21:43.151Z,17.80
2022-10-17T18:24:11.699Z,17.80
2022-10-17T18:26:39.698Z,17.80
2022-10-17T18:29:07.684Z,17.70
2022-10-17T18:31:36.420Z,17.70
2022-10-17T18:34:05.634Z,17.70
2022-10-17T18:36:35.109Z,17.60
2022-10-17T18:39:06.030Z,17.60
2022-10-17T18:41:34.373Z,17.60
2022-10-17T18:44:02.919Z,17.50
2022-10-17T18:46:36.004Z,17.50
2022-10-17T18:49:04.776Z,17.50
2022-10-17T18:51:33.374Z,17.40
2022-10-17T18:54:03.126Z,17.40
2022-10-17T18:56:33.160Z,17.40
2022-10-17T18:59:01.864Z,17.30
2022-10-17T19:01:30.457Z,17.30
2022-10-17T19:04:00.120Z,17.20
2022-10-17T19:06:31.867Z,17.20
2022-10-17T19:09:01.502Z,17.20
2022-10-17T19:11:30.906Z,17.30
2022-10-17T19:14:02.437Z,17.30
2022-10-17T19:16:32.547Z,17.30
2022-10-17T19:19:03.185Z,17.30
2022-10-17T19:21:31.429Z,17.30
2022-10-17T19:24:01.560Z,17.30
2022-10-17T19:26:31.252Z,17.30
2022-10-17T19:29:01.576Z,17.30
2022-10-17T19:31:31.642Z,17.30
2022-10-17T19:34:01.218Z,17.20
2022-10-17T19:36:33.538Z,17.20
2022-10-17T19:39:03.295Z,17.20
2022-10-17T19:41:31.484Z,17.20
2022-10-17T19:44:01.565Z,17.20
2022-10-17T19:46:30.836Z,17.20
2022-10-17T19:48:59.547Z,17.10
2022-10-17T19:51:29.032Z,17.10
2022-10-17T19:54:00.284Z,17.00
2022-10-17T19:56:30.178Z,17.00
2022-10-17T19:59:02.981Z,16.90
2022-10-17T20:01:33.766Z,16.90
2022-10-17T20:04:02.007Z,16.90
2022-10-17T20:06:33.571Z,16.90
2022-10-17T20:09:08.843Z,16.80
2022-10-17T20:11:39.200Z,16.70
2022-10-17T20:14:10.397Z,16.70
2022-10-17T20:16:38.881Z,16.70
2022-10-17T20:19:09.415Z,16.70
2022-10-17T20:21:39.739Z,16.70
2022-10-17T20:24:10.736Z,16.70
2022-10-17T20:26:39.768Z,16.60
2022-10-17T20:29:14.224Z,16.60
2022-10-17T20:31:44.127Z,16.60
2022-10-17T20:34:14.927Z,16.50
2022-10-17T20:36:47.844Z,16.40
2022-10-17T20:39:17.093Z,16.40
2022-10-17T20:41:48.641Z,16.40
2022-10-17T20:44:18.063Z,16.40
2022-10-17T20:47:01.258Z,16.30
2022-10-17T20:49:31.149Z,16.30
2022-10-17T20:51:59.468Z,16.30
2022-10-17T20:54:28.333Z,16.20
2022-10-17T20:56:58.739Z,16.20
2022-10-17T20:59:30.645Z,16.10
2022-10-17T21:01:58.830Z,16.10
2022-10-17T21:04:45.399Z,16.10
2022-10-17T21:07:14.215Z,16.00
2022-10-17T21:09:42.237Z,16.00
2022-10-17T21:12:10.346Z,16.00
2022-10-17T21:14:39.814Z,16.00
2022-10-17T21:17:07.850Z,15.90
2022-10-17T21:19:35.850Z,15.90
2022-10-17T21:22:04.098Z,15.90
2022-10-17T21:24:32.770Z,15.80
2022-10-17T21:27:01.026Z,15.80
2022-10-17T21:29:29.060Z,15.70
2022-10-17T21:31:58.459Z,15.70
2022-10-17T21:34:26.499Z,15.70
2022-10-17T21:36:54.615Z,15.70
2022-10-17T21:39:24.762Z,15.70
2022-10-17T21:41:53.750Z,15.70
2022-10-17T21:44:23.995Z,15.60
2022-10-17T21:46:53.004Z,15.60
2022-10-17T21:49:24.493Z,15.60
2022-10-17T21:51:53.543Z,15.60
2022-10-17T21:54:23.563Z,15.50
2022-10-17T21:56:52.265Z,15.50
2022-10-17T21:59:20.313Z,15.50
2022-10-17T22:01:48.514Z,15.40
2022-10-17T22:04:18.238Z,15.40
2022-10-17T22:06:51.050Z,15.30
2022-10-17T22:09:22.232Z,15.30
2022-10-17T22:11:51.776Z,15.30
2022-10-17T22:14:23.018Z,15.30
2022-10-17T22:16:51.538Z,15.30
2022-10-17T22:19:22.826Z,15.30
2022-10-17T22:21:52.909Z,15.20
2022-10-17T22:26:55.164Z,15.20
2022-10-17T22:29:23.203Z,15.30
2022-10-17T22:31:51.353Z,15.20
2022-10-17T22:34:19.731Z,15.20
2022-10-17T22:36:49.070Z,15.30
2022-10-17T22:39:18.645Z,15.20
2022-10-17T22:41:46.653Z,15.20
2022-10-17T22:44:14.709Z,15.20
2022-10-17T22:46:42.790Z,15.20
2022-10-17T22:49:10.887Z,15.20
2022-10-17T22:51:38.897Z,15.20
2022-10-17T22:54:07.486Z,15.20
2022-10-17T22:56:36.868Z,15.20
2022-10-17T22:59:05.091Z,15.20
2022-10-17T23:01:33.189Z,15.10
2022-10-17T23:04:01.302Z,15.10
2022-10-17T23:06:29.254Z,15.10
2022-10-17T23:08:57.259Z,15.10
2022-10-17T23:11:25.229Z,15.10
2022-10-17T23:13:54.693Z,15.10
2022-10-17T23:16:22.801Z,15.10
2022-10-17T23:18:50.872Z,15.00
2022-10-17T23:21:18.892Z,15.00
2022-10-17T23:23:46.882Z,15.00
2022-10-17T23:26:15.711Z,14.90
2022-10-17T23:28:44.650Z,14.80
2022-10-17T23:31:17.006Z,14.80
2022-10-17T23:33:46.204Z,14.80
2022-10-17T23:36:15.365Z,14.80
2022-10-17T23:38:44.621Z,14.70
2022-10-17T23:41:13.162Z,14.70
2022-10-17T23:43:41.386Z,14.70
2022-10-17T23:46:09.805Z,14.60
2022-10-17T23:48:39.993Z,14.70
2022-10-17T23:51:08.711Z,14.60
2022-10-17T23:53:37.142Z,14.70
2022-10-17T23:56:05.750Z,14.70
2022-10-17T23:58:33.950Z,14.70
